Time;durP1;ratioP1;P1;durP2;ratioP2;P2;SDS_P1;SDS_P2;PMS_P1;PMS_P2;Temp;Humidity;BMP_temperature;BMP_pressure;BME280_temperature;BME280_humidity;BME280_pressure;Samples;Min_cycle;Max_cycle;Signal;HPM_P1;HPM_P2
2022/08/11 00:01:12;;;;;;;2.92;2.10;;;17.70;99.90;;;;;;5039217;28;20124;-60
2022/08/11 00:03:44;;;;;;;2.30;2.10;;;17.70;99.90;;;;;;5042422;28;20022;-57
2022/08/11 00:06:13;;;;;;;3.17;2.00;;;17.70;99.90;;;;;;5027561;28;20052;-56
2022/08/11 00:08:39;;;;;;;2.78;2.00;;;17.70;99.90;;;;;;5027359;28;20215;-55
2022/08/11 00:11:08;;;;;;;2.30;1.95;;;17.60;99.90;;;;;;5031165;28;20040;-53
2022/08/11 00:13:36;;;;;;;3.50;2.47;;;17.60;99.90;;;;;;5033342;28;20026;-57
2022/08/11 00:16:09;;;;;;;2.63;1.90;;;17.60;99.90;;;;;;5035277;28;20029;-59
2022/08/11 00:18:44;;;;;;;2.38;1.95;;;17.50;99.90;;;;;;5040478;28;20021;-54
2022/08/11 00:21:11;;;;;;;3.75;2.30;;;17.60;99.90;;;;;;5037555;28;20044;-53
2022/08/11 00:23:44;;;;;;;2.40;2.05;;;17.50;99.90;;;;;;5039615;28;20033;-50
2022/08/11 00:26:11;;;;;;;2.40;1.80;;;17.50;99.90;;;;;;5034227;28;20025;-53
2022/08/11 00:28:37;;;;;;;2.95;2.13;;;17.40;99.90;;;;;;5040509;28;20020;-52
2022/08/11 00:31:28;;;;;;;2.13;1.50;;;17.40;99.90;;;;;;5030398;28;20064;-50
2022/08/11 00:33:55;;;;;;;2.97;2.05;;;17.40;99.90;;;;;;5037908;28;20338;-54
2022/08/11 00:36:28;;;;;;;2.95;1.98;;;17.40;99.90;;;;;;5033357;28;20457;-54
2022/08/11 00:39:01;;;;;;;2.50;2.30;;;17.40;99.90;;;;;;5036024;28;20406;-50
2022/08/11 00:41:57;;;;;;;6.03;2.50;;;17.30;99.90;;;;;;5031102;28;20030;-57
2022/08/11 00:44:26;;;;;;;2.08;1.90;;;17.30;99.90;;;;;;5035968;28;20365;-58
2022/08/11 00:47:01;;;;;;;3.85;2.20;;;17.20;99.90;;;;;;5028960;28;20028;-52
2022/08/11 00:49:54;;;;;;;2.90;1.90;;;17.20;99.90;;;;;;5039873;28;20029;-54
2022/08/11 00:52:19;;;;;;;3.35;1.90;;;17.20;99.90;;;;;;5030013;28;20025;-52
2022/08/11 00:55:04;;;;;;;2.25;1.83;;;17.10;99.90;;;;;;5035070;28;20356;-54
2022/08/11 00:57:35;;;;;;;1.98;1.77;;;17.10;99.90;;;;;;5032077;28;20025;-54
2022/08/11 01:00:01;;;;;;;4.15;2.40;;;17.00;99.90;;;;;;5034570;28;20034;-52
2022/08/11 01:02:32;;;;;;;1.92;1.73;;;17.00;99.90;;;;;;5040429;28;20097;-55
2022/08/11 01:05:20;;;;;;;1.90;1.38;;;16.90;99.90;;;;;;5039320;28;20101;-54
2022/08/11 01:07:52;;;;;;;3.28;2.20;;;17.00;99.90;;;;;;5046053;28;20025;-50
2022/08/11 01:10:55;;;;;;;2.75;1.85;;;16.90;99.90;;;;;;5032571;28;20056;-54
2022/08/11 01:13:21;;;;;;;3.03;2.22;;;16.80;99.90;;;;;;5028148;28;20037;-50
2022/08/11 01:16:02;;;;;;;3.28;2.03;;;16.80;99.90;;;;;;5041442;28;20484;-54
2022/08/11 01:19:04;;;;;;;2.33;1.60;;;16.80;99.90;;;;;;5041191;28;20025;-53
2022/08/11 01:21:58;;;;;;;2.58;2.38;;;16.70;99.90;;;;;;5028817;28;20082;-52
2022/08/11 01:24:45;;;;;;;3.35;1.88;;;16.70;99.90;;;;;;5035898;28;20027;-58
2022/08/11 01:27:47;;;;;;;2.50;2.30;;;16.70;99.90;;;;;;5041430;28;20472;-52
2022/08/11 01:31:02;;;;;;;2.80;1.85;;;16.70;99.90;;;;;;5039938;28;20454;-52
2022/08/11 01:34:07;;;;;;;2.70;1.98;;;16.60;99.90;;;;;;5034075;28;20479;-51
2022/08/11 01:37:06;;;;;;;2.10;1.80;;;16.60;99.90;;;;;;5038872;28;20435;-55
2022/08/11 01:40:07;;;;;;;3.38;1.73;;;16.60;99.90;;;;;;5038133;28;20157;-56
2022/08/11 01:45:29;;;;;;;4.97;1.88;;;16.50;99.90;;;;;;5041252;28;20075;-55
2022/08/11 01:48:32;;;;;;;2.85;2.05;;;16.50;99.90;;;;;;5036187;28;20025;-58
2022/08/11 01:51:28;;;;;;;1.90;1.63;;;16.50;99.90;;;;;;5042733;28;20036;-54
2022/08/11 01:54:23;;;;;;;2.00;1.90;;;16.40;99.90;;;;;;5037895;28;20025;-55
2022/08/11 01:57:30;;;;;;;2.83;1.90;;;16.40;99.90;;;;;;5038343;28;20403;-57
2022/08/11 02:00:16;;;;;;;3.33;2.03;;;16.30;99.90;;;;;;5030461;28;20075;-51
2022/08/11 02:02:57;;;;;;;3.45;2.20;;;16.30;99.90;;;;;;5031218;28;20031;-53
2022/08/11 02:06:02;;;;;;;2.97;2.08;;;16.30;99.90;;;;;;5030906;28;20013;-57
2022/08/11 02:08:48;;;;;;;3.75;2.25;;;16.20;99.90;;;;;;5034181;28;20024;-53
2022/08/11 02:11:29;;;;;;;2.35;2.15;;;16.20;99.90;;;;;;5043822;28;20021;-55
2022/08/11 02:14:14;;;;;;;3.10;2.20;;;16.20;99.90;;;;;;5041329;28;20458;-55
2022/08/11 02:16:54;;;;;;;3.75;2.10;;;16.20;99.90;;;;;;5035809;28;20116;-57
2022/08/11 02:25:36;;;;;;;3.08;2.10;;;16.10;99.90;;;;;;5036467;28;20083;-53
2022/08/11 02:28:27;;;;;;;3.47;2.22;;;16.00;99.90;;;;;;5039863;28;20075;-51
2022/08/11 02:34:18;;;;;;;2.20;2.00;;;16.10;99.90;;;;;;5042779;28;20098;-58
2022/08/11 02:36:54;;;;;;;1.85;1.67;;;16.00;99.90;;;;;;5036241;28;20045;-52
2022/08/11 02:39:23;;;;;;;4.15;2.10;;;16.00;99.90;;;;;;5034906;28;20113;-51
2022/08/11 02:42:23;;;;;;;3.03;2.20;;;16.00;99.90;;;;;;5038355;28;20033;-55
2022/08/11 02:45:16;;;;;;;2.10;1.90;;;15.90;99.90;;;;;;5037202;28;20017;-52
2022/08/11 02:51:14;;;;;;;6.15;2.50;;;15.80;99.90;;;;;;5036467;28;20163;-54
2022/08/11 02:53:50;;;;;;;3.25;2.17;;;15.70;99.90;;;;;;5037483;28;20021;-50
2022/08/11 02:56:43;;;;;;;6.63;2.33;;;15.70;99.90;;;;;;5032978;28;20533;-51
2022/08/11 02:59:49;;;;;;;2.47;2.28;;;15.70;99.90;;;;;;5045090;28;20504;-56
2022/08/11 03:02:31;;;;;;;2.58;2.20;;;15.60;99.90;;;;;;5030530;28;20056;-51
2022/08/11 03:05:02;;;;;;;2.25;2.00;;;15.60;99.90;;;;;;5034972;28;20060;-56
2022/08/11 03:07:33;;;;;;;2.65;2.30;;;15.60;99.90;;;;;;5039289;28;20032;-57
2022/08/11 03:10:21;;;;;;;2.38;2.08;;;15.50;99.90;;;;;;5032414;28;20068;-56
2022/08/11 03:19:17;;;;;;;2.88;2.50;;;15.50;99.90;;;;;;5038295;28;20076;-52
2022/08/11 03:22:08;;;;;;;3.20;2.35;;;15.50;99.90;;;;;;5040663;28;20556;-57
2022/08/11 03:24:52;;;;;;;2.72;2.53;;;15.40;99.90;;;;;;5029436;28;20030;-52
2022/08/11 03:27:24;;;;;;;2.33;2.13;;;15.40;99.90;;;;;;5033895;28;20417;-52
2022/08/11 03:30:01;;;;;;;2.50;2.30;;;15.40;99.90;;;;;;5033946;28;20036;-55
2022/08/11 03:32:33;;;;;;;2.60;2.00;;;15.40;99.90;;;;;;5036988;28;20029;-56
2022/08/11 03:35:02;;;;;;;4.13;2.38;;;15.30;99.90;;;;;;5036177;28;20032;-54
2022/08/11 03:37:49;;;;;;;4.20;2.42;;;15.30;99.90;;;;;;5037653;28;20504;-57
2022/08/11 03:44:03;;;;;;;2.90;2.63;;;15.30;99.90;;;;;;5049836;28;20086;-55
2022/08/11 03:46:47;;;;;;;3.60;2.40;;;15.20;99.90;;;;;;5031475;28;20080;-52
2022/08/11 03:49:49;;;;;;;3.95;2.08;;;15.20;99.90;;;;;;5040921;28;20025;-56
2022/08/11 03:52:36;;;;;;;2.72;2.30;;;15.20;99.90;;;;;;5030463;28;20025;-55
2022/08/11 03:55:20;;;;;;;2.53;2.22;;;15.20;99.90;;;;;;5036237;28;20036;-50
2022/08/11 03:58:24;;;;;;;4.55;2.40;;;15.20;99.90;;;;;;5040908;28;20110;-52
2022/08/11 04:01:37;;;;;;;2.70;2.50;;;15.10;99.90;;;;;;5028294;28;20388;-56
2022/08/11 04:04:28;;;;;;;2.70;2.38;;;15.10;99.90;;;;;;5027511;28;20061;-53
2022/08/11 04:07:36;;;;;;;4.32;2.58;;;15.10;99.90;;;;;;5035525;28;20029;-53
2022/08/11 04:10:10;;;;;;;3.13;2.72;;;15.10;99.90;;;;;;5039337;28;20040;-56
2022/08/11 04:13:03;;;;;;;3.20;2.38;;;15.10;99.90;;;;;;5033572;28;20037;-56
2022/08/11 04:16:06;;;;;;;2.55;2.35;;;15.10;99.90;;;;;;5036964;28;20025;-55
2022/08/11 04:19:19;;;;;;;3.13;2.33;;;15.00;99.90;;;;;;5033217;28;20025;-53
2022/08/11 04:22:06;;;;;;;4.28;2.80;;;15.00;99.90;;;;;;5025823;28;20518;-56
2022/08/11 04:24:53;;;;;;;3.58;3.05;;;15.00;99.90;;;;;;5030580;28;20025;-54
2022/08/11 04:27:33;;;;;;;3.30;2.95;;;15.00;99.90;;;;;;5034683;28;20561;-53
2022/08/11 04:30:13;;;;;;;4.22;3.00;;;15.00;99.90;;;;;;5039127;28;20051;-56
2022/08/11 04:32:57;;;;;;;3.75;3.05;;;15.00;99.90;;;;;;5029112;28;20485;-52
2022/08/11 04:35:43;;;;;;;3.03;2.75;;;15.00;99.90;;;;;;5032056;28;20407;-50
2022/08/11 04:38:14;;;;;;;3.22;2.67;;;15.00;99.90;;;;;;5039852;28;20736;-55
2022/08/11 04:41:21;;;;;;;3.28;2.97;;;15.00;99.90;;;;;;5036586;28;20025;-55
2022/08/11 04:44:14;;;;;;;3.80;2.55;;;15.00;99.90;;;;;;5027751;28;20068;-53
2022/08/11 04:46:58;;;;;;;3.50;2.80;;;15.00;99.90;;;;;;5031122;28;20022;-56
2022/08/11 05:02:12;;;;;;;3.17;2.67;;;15.10;99.90;;;;;;5032615;28;20182;-55
2022/08/11 05:08:17;;;;;;;3.13;2.83;;;15.10;99.90;;;;;;5027866;28;20064;-57
2022/08/11 05:11:01;;;;;;;3.00;2.70;;;15.10;99.90;;;;;;5033648;28;20017;-57
2022/08/11 05:36:51;;;;;;;3.53;2.70;;;15.60;99.90;;;;;;5031081;28;20044;-58
2022/08/11 05:56:19;;;;;;;3.78;2.88;;;16.20;99.90;;;;;;5037758;28;20064;-56
2022/08/11 05:58:52;;;;;;;;;;;16.30;99.90;;;;;;5043927;28;20025;-57
2022/08/11 06:01:30;;;;;;;4.15;2.70;;;16.40;99.90;;;;;;5041147;28;19916;-54
2022/08/11 06:04:14;;;;;;;2.92;2.63;;;16.40;99.90;;;;;;5035710;28;20567;-55
2022/08/11 06:06:50;;;;;;;4.43;3.08;;;16.50;99.90;;;;;;5031004;28;20021;-58
2022/08/11 06:09:46;;;;;;;3.08;2.78;;;16.60;99.90;;;;;;5027975;28;20057;-57
2022/08/11 06:12:21;;;;;;;2.72;2.53;;;16.70;99.90;;;;;;5040885;28;20025;-58
2022/08/11 06:14:52;;;;;;;6.10;2.63;;;16.80;99.90;;;;;;5034474;28;20028;-57
2022/08/11 06:17:26;;;;;;;4.00;2.50;;;16.90;99.90;;;;;;5040953;28;20028;-56
2022/08/11 06:20:05;;;;;;;2.83;2.30;;;17.00;99.90;;;;;;5042405;28;20442;-55
2022/08/11 06:22:32;;;;;;;4.78;2.58;;;17.20;99.90;;;;;;5037764;28;20079;-59
2022/08/11 06:25:01;;;;;;;3.00;2.40;;;17.20;99.90;;;;;;5040865;28;20025;-59
2022/08/11 06:27:34;;;;;;;4.03;2.10;;;17.40;99.90;;;;;;5042802;28;20009;-58
2022/08/11 06:30:01;;;;;;;2.75;2.53;;;17.50;99.90;;;;;;5038823;28;20479;-57
2022/08/11 06:32:31;;;;;;;2.90;2.70;;;17.60;99.90;;;;;;5036985;28;20247;-53
2022/08/11 06:34:58;;;;;;;2.88;2.20;;;17.70;99.90;;;;;;5045260;28;20479;-60
2022/08/11 06:37:28;;;;;;;3.15;2.38;;;17.90;99.90;;;;;;5039405;28;20029;-57
2022/08/11 06:40:09;;;;;;;5.38;2.70;;;18.00;99.90;;;;;;5046002;28;20399;-59
2022/08/11 06:42:43;;;;;;;2.90;2.70;;;18.10;99.90;;;;;;5037735;28;20021;-58
2022/08/11 06:45:39;;;;;;;2.30;2.10;;;18.30;99.90;;;;;;5043245;28;20563;-58
2022/08/11 06:48:14;;;;;;;4.15;2.45;;;18.50;99.90;;;;;;5039641;28;20357;-57
2022/08/11 06:53:25;;;;;;;10.98;3.63;;;18.80;99.90;;;;;;5031774;28;20071;-59
2022/08/11 07:01:31;;;;;;;2.58;2.22;;;19.30;99.90;;;;;;5036068;28;20032;-58
2022/08/11 07:04:06;;;;;;;2.78;2.00;;;19.50;99.90;;;;;;5032818;28;20029;-59
2022/08/11 07:15:40;;;;;;;2.13;1.92;;;19.70;99.90;;;;;;5033911;28;20195;-58
2022/08/11 07:15:41;;;;;;;3.35;2.03;;;20.30;99.90;;;;;;5031452;28;20032;-58
2022/08/11 07:29:37;;;;;;;2.55;1.88;;;21.40;99.90;;;;;;5034539;28;20031;-58
2022/08/11 07:32:29;;;;;;;5.13;1.88;;;21.50;99.90;;;;;;5035927;28;20021;-59
2022/08/11 07:35:13;;;;;;;2.63;2.10;;;21.70;99.90;;;;;;5036679;28;20053;-58
2022/08/11 07:37:44;;;;;;;3.00;2.22;;;21.90;99.90;;;;;;5038768;28;20024;-58
2022/08/11 07:40:10;;;;;;;3.42;2.20;;;22.10;99.90;;;;;;5040393;28;20036;-58
2022/08/11 07:42:37;;;;;;;3.60;1.98;;;22.30;99.90;;;;;;5038682;28;20025;-59
2022/08/11 07:53:28;;;;;;;3.63;1.90;;;23.20;99.90;;;;;;5032570;28;20477;-58
2022/08/11 07:55:57;;;;;;;2.35;2.03;;;23.40;99.90;;;;;;5038401;28;20025;-59
2022/08/11 08:17:56;;;;;;;2.00;1.83;;;25.10;97.70;;;;;;5037634;28;20032;-58
2022/08/11 08:20:31;;;;;;;2.85;2.00;;;25.30;97.20;;;;;;5033227;28;20025;-56
2022/08/11 08:22:59;;;;;;;1.93;1.63;;;25.50;96.90;;;;;;5043278;28;20021;-59
2022/08/11 08:25:27;;;;;;;2.97;1.83;;;25.70;95.10;;;;;;5036428;28;20565;-58
2022/08/11 08:30:46;;;;;;;2.45;1.63;;;25.90;94.30;;;;;;5004100;28;20057;-56
2022/08/11 08:33:15;;;;;;;2.38;1.60;;;26.10;93.70;;;;;;5007225;28;20611;-54
2022/08/11 08:35:43;;;;;;;2.22;2.03;;;26.20;94.20;;;;;;5007802;28;20599;-56
2022/08/11 08:38:08;;;;;;;2.28;1.90;;;26.30;93.20;;;;;;5021770;28;20030;-55
2022/08/11 08:40:35;;;;;;;2.88;2.05;;;26.50;93.30;;;;;;5006403;28;20036;-55
2022/08/11 08:43:07;;;;;;;2.53;1.70;;;26.70;92.50;;;;;;5004957;28;20097;-57
2022/08/11 08:45:36;;;;;;;3.75;1.80;;;26.90;92.50;;;;;;4997462;28;20018;-57
2022/08/11 08:48:07;;;;;;;1.73;1.60;;;26.90;91.30;;;;;;5003733;28;20026;-55
2022/08/11 08:53:28;;;;;;;2.50;2.30;;;27.10;91.10;;;;;;5003565;28;20531;-56
2022/08/11 08:55:56;;;;;;;2.42;1.45;;;27.20;91.30;;;;;;5005970;28;20171;-58
2022/08/11 08:58:23;;;;;;;2.08;1.60;;;27.30;91.00;;;;;;4998988;28;20038;-57
2022/08/11 09:00:51;;;;;;;2.58;1.80;;;27.50;91.00;;;;;;5005186;28;20022;-58
2022/08/11 09:03:18;;;;;;;2.53;1.80;;;27.60;89.70;;;;;;4998249;28;20033;-59
2022/08/11 09:05:45;;;;;;;2.70;1.65;;;27.80;89.00;;;;;;4995871;28;20018;-57
2022/08/11 09:08:11;;;;;;;2.78;1.73;;;27.80;88.50;;;;;;5007972;28;20033;-57
2022/08/11 09:10:37;;;;;;;2.53;1.77;;;28.00;88.30;;;;;;5008409;28;20026;-59
2022/08/11 09:13:05;;;;;;;2.10;1.75;;;28.00;85.50;;;;;;5000323;28;20026;-58
2022/08/11 09:15:32;;;;;;;4.35;1.70;;;27.90;86.00;;;;;;5007908;28;20057;-58
2022/08/11 09:18:04;;;;;;;3.95;1.55;;;27.90;86.10;;;;;;5008790;28;20445;-56
2022/08/11 09:20:35;;;;;;;2.42;1.70;;;28.00;86.00;;;;;;5023364;28;20516;-60
2022/08/11 09:28:36;;;;;;;1.55;1.23;;;27.90;84.00;;;;;;5012017;28;20128;-55
2022/08/11 09:31:04;;;;;;;2.13;1.25;;;27.90;83.20;;;;;;5008848;28;20404;-55
2022/08/11 09:33:31;;;;;;;1.95;1.50;;;28.10;86.00;;;;;;5003359;28;20029;-56
2022/08/11 09:40:27;;;;;;;2.75;1.50;;;28.10;84.10;;;;;;5007400;28;20037;-55
2022/08/11 09:41:31;;;;;;;1.40;1.25;;;28.30;82.00;;;;;;5005359;28;20056;-59
2022/08/11 09:46:43;;;;;;;;;;;28.20;79.70;;;;;;5007737;28;20068;-56
2022/08/11 09:49:09;;;;;;;1.50;1.30;;;28.10;80.00;;;;;;5007505;28;19956;-54
2022/08/11 09:51:35;;;;;;;1.80;1.70;;;28.10;80.40;;;;;;5003894;28;20027;-58
2022/08/11 09:54:05;;;;;;;1.75;1.52;;;28.00;80.00;;;;;;5023762;28;20018;-56
2022/08/11 09:59:19;;;;;;;1.33;1.20;;;27.90;78.80;;;;;;5009733;28;20081;-57
2022/08/11 10:01:48;;;;;;;1.50;1.38;;;28.00;80.10;;;;;;5009237;28;20026;-55
2022/08/11 10:04:15;;;;;;;2.25;1.20;;;28.00;79.00;;;;;;5002621;28;20014;-57
2022/08/11 10:07:00;;;;;;;1.35;1.25;;;28.10;79.80;;;;;;5010764;28;20530;-57
2022/08/11 10:09:38;;;;;;;3.58;1.70;;;28.10;79.30;;;;;;5006626;28;20395;-55
2022/08/11 10:12:08;;;;;;;2.15;1.25;;;28.00;80.10;;;;;;5005014;28;20029;-56
2022/08/11 10:17:23;;;;;;;2.38;1.50;;;28.10;79.30;;;;;;5004977;28;20036;-58
2022/08/11 10:19:50;;;;;;;2.50;1.30;;;28.10;76.80;;;;;;5007029;28;20061;-57
2022/08/11 10:27:57;;;;;;;1.53;1.10;;;27.90;77.80;;;;;;5007969;28;20032;-57
2022/08/11 10:35:58;;;;;;;2.30;1.20;;;27.70;77.70;;;;;;5007139;28;20032;-57
2022/08/11 10:38:25;;;;;;;1.48;1.10;;;27.70;75.50;;;;;;5007641;28;20044;-57
2022/08/11 10:43:01;;;;;;;2.15;1.30;;;27.70;76.70;;;;;;5005760;28;20030;-58
2022/08/11 10:43:39;;;;;;;2.00;1.13;;;27.70;77.50;;;;;;5008447;28;20037;-57
2022/08/11 10:48:55;;;;;;;1.33;1.23;;;27.80;78.30;;;;;;5007376;28;20040;-55
2022/08/11 10:59:36;;;;;;;2.72;1.20;;;27.90;75.90;;;;;;5008500;28;20037;-58
2022/08/11 11:02:02;;;;;;;1.52;1.00;;;27.90;77.00;;;;;;5006410;28;20030;-58
2022/08/11 11:04:56;;;;;;;1.40;1.30;;;28.00;75.30;;;;;;5009905;28;20052;-58
2022/08/11 11:07:29;;;;;;;1.30;1.20;;;27.80;75.30;;;;;;5008978;28;20072;-57
2022/08/11 11:09:57;;;;;;;1.58;1.10;;;27.80;76.80;;;;;;5009127;28;20034;-56
2022/08/11 11:18:21;;;;;;;1.65;1.27;;;27.80;75.70;;;;;;5009832;28;20044;-56
2022/08/11 11:20:55;;;;;;;2.65;1.70;;;27.80;75.70;;;;;;5005559;28;20025;-57
2022/08/11 11:23:37;;;;;;;1.60;1.35;;;27.80;75.50;;;;;;5007154;28;20026;-57
2022/08/11 11:26:44;;;;;;;2.67;1.60;;;27.60;73.80;;;;;;5009108;28;20018;-57
2022/08/11 11:29:19;;;;;;;3.85;1.70;;;27.50;74.90;;;;;;5008826;28;20025;-56
2022/08/11 11:31:57;;;;;;;3.15;1.75;;;27.60;78.30;;;;;;5008695;28;20034;-56
2022/08/11 11:34:54;;;;;;;2.08;1.88;;;27.70;77.20;;;;;;5008992;28;20022;-55
2022/08/11 11:37:22;;;;;;;2.17;2.00;;;27.80;75.60;;;;;;5008702;28;20026;-59
2022/08/11 11:39:49;;;;;;;3.00;1.67;;;27.80;74.20;;;;;;5022632;28;20056;-57
2022/08/11 11:42:17;;;;;;;4.10;1.20;;;27.80;74.40;;;;;;5006891;28;20041;-56
2022/08/11 11:44:43;;;;;;;2.53;1.45;;;27.90;74.00;;;;;;5008243;28;20146;-57
2022/08/11 11:47:11;;;;;;;4.90;1.30;;;27.90;73.80;;;;;;5007684;28;20033;-57
2022/08/11 11:49:41;;;;;;;1.92;1.35;;;27.80;73.50;;;;;;5008862;28;20026;-58
2022/08/11 11:52:12;;;;;;;5.38;1.38;;;27.80;72.90;;;;;;5007905;28;20014;-58
2022/08/11 11:54:39;;;;;;;8.88;2.60;;;27.90;72.70;;;;;;5008290;28;20033;-56
2022/08/11 12:02:36;;;;;;;2.22;1.30;;;27.90;72.90;;;;;;5006229;28;20396;-58
2022/08/11 12:05:03;;;;;;;1.10;1.00;;;28.00;72.00;;;;;;5008230;28;20034;-59
2022/08/11 12:10:16;;;;;;;1.30;1.08;;;28.00;72.10;;;;;;5008176;28;20056;-59
2022/08/11 12:15:27;;;;;;;0.93;0.88;;;28.10;70.10;;;;;;5006141;28;20502;-59
2022/08/11 12:17:55;;;;;;;2.38;1.05;;;28.20;69.70;;;;;;5008706;28;20034;-56
2022/08/11 12:20:21;;;;;;;1.77;0.93;;;28.20;70.80;;;;;;5006665;28;20033;-58
2022/08/11 12:28:21;;;;;;;1.40;1.08;;;28.50;72.40;;;;;;5005811;28;20339;-58
2022/08/11 12:30:49;;;;;;;1.35;1.10;;;28.50;71.30;;;;;;5006664;28;20369;-60
2022/08/11 12:33:15;;;;;;;1.45;0.93;;;28.60;69.70;;;;;;5007314;28;20025;-55
2022/08/11 12:35:42;;;;;;;1.80;1.10;;;28.60;68.70;;;;;;5004160;28;20018;-53
2022/08/11 12:38:08;;;;;;;1.50;0.73;;;28.60;68.20;;;;;;5003536;28;20516;-54
2022/08/11 12:46:33;;;;;;;0.93;0.90;;;28.70;70.10;;;;;;4985213;28;20034;-57
2022/08/11 12:51:58;;;;;;;1.20;0.88;;;29.00;69.20;;;;;;4998592;28;20029;-56
2022/08/11 12:54:37;;;;;;;2.00;1.10;;;29.10;69.00;;;;;;5002600;28;20026;-58
2022/08/11 13:05:31;;;;;;;1.75;0.93;;;29.40;64.80;;;;;;5010061;28;20028;-58
2022/08/11 13:08:00;;;;;;;0.70;0.70;;;29.50;66.90;;;;;;5011173;28;20534;-57
2022/08/11 13:13:13;;;;;;;2.47;0.93;;;29.80;67.50;;;;;;5011161;28;20072;-58
2022/08/11 13:15:40;;;;;;;1.30;1.20;;;29.90;66.00;;;;;;5011753;28;20432;-56
2022/08/11 13:18:06;;;;;;;2.53;0.90;;;30.10;64.50;;;;;;5008868;28;20029;-57
2022/08/11 13:20:33;;;;;;;1.33;0.80;;;30.00;64.50;;;;;;5011615;28;20021;-57
2022/08/11 13:23:00;;;;;;;3.17;0.90;;;30.10;63.00;;;;;;5004708;28;20034;-54
2022/08/11 13:25:31;;;;;;;1.95;0.98;;;30.20;62.90;;;;;;5004041;28;20049;-59
2022/08/11 13:27:59;;;;;;;2.88;0.88;;;30.20;63.20;;;;;;5003182;28;20440;-60
2022/08/11 13:33:14;;;;;;;0.63;0.63;;;30.50;61.90;;;;;;5010518;28;20067;-58
2022/08/11 13:35:40;;;;;;;2.45;1.00;;;30.50;62.60;;;;;;5011504;28;20022;-56
2022/08/11 13:38:11;;;;;;;1.30;0.70;;;30.60;62.20;;;;;;5008656;28;20030;-58
2022/08/11 13:40:39;;;;;;;0.73;0.73;;;30.70;61.60;;;;;;5005659;28;20069;-56
2022/08/11 13:43:05;;;;;;;2.47;0.90;;;30.60;61.80;;;;;;5007703;28;20025;-57
2022/08/11 13:45:32;;;;;;;1.17;0.98;;;30.70;63.20;;;;;;5005601;28;20035;-58
2022/08/11 13:48:00;;;;;;;1.20;0.60;;;30.80;63.40;;;;;;5011508;28;20161;-60
2022/08/11 13:53:13;;;;;;;1.13;0.82;;;30.90;61.80;;;;;;5010123;28;20080;-57
2022/08/11 13:55:41;;;;;;;2.20;1.00;;;31.00;61.70;;;;;;5010579;28;20029;-58
2022/08/11 13:58:09;;;;;;;2.83;1.40;;;31.00;61.80;;;;;;5005168;28;20717;-58
2022/08/11 14:00:35;;;;;;;1.25;0.70;;;30.90;60.40;;;;;;5007647;28;20658;-57
2022/08/11 14:03:03;;;;;;;0.82;0.82;;;31.00;61.20;;;;;;5004308;28;20026;-56
2022/08/11 14:05:37;;;;;;;3.03;1.10;;;31.00;61.10;;;;;;5011030;28;20030;-58
2022/08/11 14:08:09;;;;;;;1.00;1.00;;;30.90;61.10;;;;;;5009859;28;20029;-57
2022/08/11 14:10:37;;;;;;;1.75;1.25;;;30.90;62.80;;;;;;5005586;28;20026;-58
2022/08/11 14:16:00;;;;;;;1.10;1.00;;;31.00;62.50;;;;;;5007432;28;20459;-57
2022/08/11 14:18:28;;;;;;;1.42;1.05;;;31.10;61.20;;;;;;5006624;28;20022;-56
2022/08/11 14:23:44;;;;;;;1.67;1.13;;;31.20;61.20;;;;;;5006276;28;20034;-57
2022/08/11 14:26:27;;;;;;;1.08;1.00;;;31.30;60.60;;;;;;5026103;28;20022;-58
2022/08/11 14:29:04;;;;;;;1.20;1.00;;;31.30;61.10;;;;;;5010590;28;20040;-58
2022/08/11 14:31:32;;;;;;;1.23;0.88;;;31.30;61.10;;;;;;5008279;28;20414;-58
2022/08/11 14:34:02;;;;;;;1.55;0.75;;;31.30;61.00;;;;;;5010119;28;20397;-57
2022/08/11 14:36:34;;;;;;;1.23;1.13;;;31.30;60.70;;;;;;5009468;28;20499;-54
2022/08/11 14:39:15;;;;;;;1.63;0.90;;;31.20;60.90;;;;;;5010082;28;20052;-59
2022/08/11 14:47:41;;;;;;;3.92;1.52;;;31.10;62.10;;;;;;5006934;28;20044;-58
2022/08/11 14:50:12;;;;;;;2.13;1.20;;;31.00;63.10;;;;;;5009474;28;20033;-56
2022/08/11 14:52:59;;;;;;;2.80;1.20;;;31.10;62.70;;;;;;5005759;28;20021;-59
2022/08/11 14:58:19;;;;;;;2.40;1.10;;;31.10;61.80;;;;;;5011165;28;20511;-60
2022/08/11 15:00:45;;;;;;;4.53;1.60;;;30.80;63.50;;;;;;5006398;28;20038;-58
2022/08/11 15:03:13;;;;;;;3.38;1.52;;;30.60;64.20;;;;;;5009404;28;20030;-58
2022/08/11 15:05:49;;;;;;;2.95;1.40;;;30.50;65.20;;;;;;5009485;28;20025;-54
2022/08/11 15:08:16;;;;;;;2.45;1.20;;;30.40;65.20;;;;;;5005100;28;20068;-57
2022/08/11 15:10:42;;;;;;;1.50;1.02;;;30.20;65.80;;;;;;5010239;28;20026;-58
2022/08/11 15:13:09;;;;;;;2.38;1.42;;;30.20;66.20;;;;;;4996008;28;20063;-59
2022/08/11 15:18:23;;;;;;;1.40;1.30;;;30.10;66.30;;;;;;5001834;28;20176;-59
2022/08/11 15:38:00;;;;;;;2.35;1.02;;;29.40;66.80;;;;;;5006911;28;20029;-60
2022/08/11 15:46:34;;;;;;;1.98;1.60;;;29.40;66.60;;;;;;5008400;28;20028;-57
2022/08/11 15:49:19;;;;;;;1.48;1.27;;;29.20;66.90;;;;;;5004579;28;20026;-56
2022/08/11 15:51:48;;;;;;;;;;;29.20;67.10;;;;;;5005934;28;20025;-56
2022/08/11 15:54:17;;;;;;;2.45;1.42;;;29.10;66.80;;;;;;5003914;28;20368;-59
2022/08/11 15:56:46;;;;;;;2.70;1.23;;;29.00;67.60;;;;;;5009428;28;20029;-57
2022/08/11 16:04:37;;;;;;;3.17;1.10;;;28.80;67.50;;;;;;5003921;28;20018;-59
2022/08/11 16:07:10;;;;;;;1.73;1.20;;;28.80;68.40;;;;;;5009094;28;20525;-57
2022/08/11 16:10:09;;;;;;;1.88;1.30;;;28.80;68.00;;;;;;5009497;28;20018;-58
2022/08/11 16:18:23;;;;;;;1.20;1.10;;;28.60;67.80;;;;;;5003393;28;20021;-58
2022/08/11 16:20:54;;;;;;;1.20;1.10;;;28.60;67.60;;;;;;5004560;28;20043;-59
2022/08/11 16:23:24;;;;;;;2.03;1.25;;;28.60;68.20;;;;;;5004560;28;20381;-57
2022/08/11 16:25:52;;;;;;;1.02;0.93;;;28.50;68.40;;;;;;5002884;28;20029;-58
2022/08/11 16:28:20;;;;;;;2.97;1.13;;;28.50;68.00;;;;;;5004915;28;20053;-58
2022/08/11 16:30:47;;;;;;;3.20;1.33;;;28.40;68.30;;;;;;5007209;28;20034;-58
2022/08/11 16:33:14;;;;;;;4.53;1.35;;;28.40;68.40;;;;;;5007308;28;20037;-59
2022/08/11 16:38:38;;;;;;;3.03;1.20;;;28.20;68.80;;;;;;5002428;28;20029;-58
2022/08/11 16:41:11;;;;;;;2.22;1.20;;;28.20;68.30;;;;;;5007509;28;20032;-58
2022/08/11 16:49:32;;;;;;;3.25;1.00;;;28.00;68.90;;;;;;5002690;28;20030;-58
2022/08/11 16:52:02;;;;;;;1.35;1.20;;;27.90;69.50;;;;;;5003521;28;20065;-58
2022/08/11 16:54:29;;;;;;;5.03;1.25;;;27.80;69.10;;;;;;5004936;28;20531;-58
2022/08/11 16:59:12;;;;;;;2.63;0.95;;;27.80;69.30;;;;;;5008238;28;20464;-57
2022/08/11 16:59:43;;;;;;;1.10;0.95;;;27.70;69.10;;;;;;5005990;28;20033;-57
2022/08/11 17:13:50;;;;;;;1.65;1.02;;;27.30;69.30;;;;;;4981749;28;20520;-56
2022/08/11 17:16:25;;;;;;;3.25;0.90;;;27.20;69.70;;;;;;5009874;28;20032;-57
2022/08/11 17:18:59;;;;;;;1.10;1.00;;;27.10;69.80;;;;;;5017461;28;20076;-58
2022/08/11 17:21:29;;;;;;;2.13;1.38;;;27.00;70.30;;;;;;5012165;28;20022;-60
2022/08/11 17:24:21;;;;;;;1.45;1.02;;;26.90;70.00;;;;;;5015058;28;20161;-59
2022/08/11 17:26:57;;;;;;;3.50;1.10;;;26.80;70.20;;;;;;5006332;28;20042;-58
2022/08/11 17:29:35;;;;;;;1.20;0.85;;;26.70;70.10;;;;;;5013849;28;20077;-59
2022/08/11 17:37:35;;;;;;;5.13;1.60;;;26.50;70.80;;;;;;5009151;28;20092;-56
2022/08/11 17:40:07;;;;;;;1.83;1.38;;;26.40;71.30;;;;;;5016172;28;20043;-58
2022/08/11 17:48:24;;;;;;;1.17;0.90;;;26.20;71.80;;;;;;5010147;28;20088;-58
2022/08/11 17:51:11;;;;;;;1.77;1.10;;;26.20;72.20;;;;;;5012362;28;20475;-59
2022/08/11 18:04:53;;;;;;;2.47;1.40;;;25.80;68.90;;;;;;5008551;28;20740;-58
